Time;durP1;ratioP1;P1;durP2;ratioP2;P2;SDS_P1;SDS_P2;PMS_P1;PMS_P2;Temp;Humidity;BMP_temperature;BMP_pressure;BME280_temperature;BME280_humidity;BME280_pressure;Samples;Min_cycle;Max_cycle;Signal;HPM_P1;HPM_P2
2021/11/17 02:29:38;;;;;;;44.15;18.90;;;;;;;6.13;96.01;100920.19;20983715;28;20078;-70
2021/11/17 02:40:00;;;;;;;44.80;18.27;;;;;;;6.17;95.74;100916.78;20980327;28;20117;-70
2021/11/17 02:50:35;;;;;;;41.88;17.42;;;;;;;6.19;95.70;100914.22;20979330;28;20049;-70
2021/11/17 03:00:54;;;;;;;44.53;17.85;;;;;;;6.15;95.66;100898.56;20980078;28;20635;-69
2021/11/17 03:11:05;;;;;;;41.55;17.77;;;;;;;6.10;96.13;100902.84;20981601;28;20496;-69
2021/11/17 03:21:19;;;;;;;42.63;18.83;;;;;;;6.08;96.43;100903.66;20987546;28;20094;-70
2021/11/17 03:31:29;;;;;;;46.70;19.25;;;;;;;6.08;96.72;100907.16;20995855;28;20049;-70
2021/11/17 03:42:06;;;;;;;43.90;17.90;;;;;;;6.09;96.35;100897.66;20995664;28;20420;-70
2021/11/17 03:52:23;;;;;;;47.80;18.42;;;;;;;6.01;96.82;100917.47;20896112;28;20049;-70
2021/11/17 04:02:43;;;;;;;45.22;18.25;;;;;;;5.90;97.15;100918.19;20992089;28;20048;-71
2021/11/17 04:12:51;;;;;;;43.58;18.30;;;;;;;6.01;96.42;100925.28;20994465;28;20418;-70
2021/11/17 04:23:02;;;;;;;39.67;16.50;;;;;;;5.98;95.24;100915.69;20992374;28;20476;-69
2021/11/17 04:33:19;;;;;;;40.35;15.70;;;;;;;5.94;96.25;100923.44;20990508;28;20105;-68
2021/11/17 04:43:29;;;;;;;46.42;17.25;;;;;;;6.01;95.32;100933.06;20991369;28;20410;-69
2021/11/17 04:53:31;;;;;;;33.30;14.77;;;;;;;5.97;95.95;100931.28;20990863;28;20485;-69
2021/11/17 05:03:50;;;;;;;43.85;17.15;;;;;;;5.95;96.08;100936.47;20988050;28;20109;-71
2021/11/17 05:14:01;;;;;;;38.10;14.75;;;;;;;5.93;95.98;100951.16;20989773;28;20040;-72
2021/11/17 05:24:15;;;;;;;36.67;14.32;;;;;;;5.85;96.18;100945.84;20987850;28;20048;-72
2021/11/17 05:34:28;;;;;;;32.47;13.55;;;;;;;5.86;96.27;100951.94;20986270;28;20094;-71
2021/11/17 05:44:55;;;;;;;33.13;12.80;;;;;;;5.82;96.77;100961.41;20985468;28;20051;-71
2021/11/17 05:55:18;;;;;;;34.13;13.38;;;;;;;5.83;96.93;100973.53;20985131;28;20460;-71
2021/11/17 06:05:20;;;;;;;32.53;12.15;;;;;;;5.79;96.36;100974.34;20981732;28;20114;-71
2021/11/17 06:15:22;;;;;;;29.00;12.70;;;;;;;5.88;96.18;100992.66;20983482;28;20049;-71
2021/11/17 06:25:25;;;;;;;35.90;14.48;;;;;;;5.89;97.02;100998.72;20983331;28;20056;-70
2021/11/17 06:35:27;;;;;;;34.25;13.57;;;;;;;5.79;96.92;101018.53;20981345;28;20097;-70
2021/11/17 06:45:31;;;;;;;29.83;12.07;;;;;;;5.82;96.45;101034.16;20981753;28;20052;-70
2021/11/17 06:55:32;;;;;;;26.47;10.67;;;;;;;5.80;96.53;101038.47;20979117;28;20045;-70
2021/11/17 07:05:34;;;;;;;24.88;10.57;;;;;;;5.81;95.42;101060.13;20979574;28;20394;-70
2021/11/17 07:15:36;;;;;;;18.85;7.57;;;;;;;5.76;94.54;101073.06;20980108;28;20045;-70
2021/11/17 07:25:38;;;;;;;21.95;7.75;;;;;;;5.84;93.07;101084.41;20955361;28;20099;-69
2021/11/17 07:35:43;;;;;;;12.98;6.00;;;;;;;5.68;94.09;101098.03;20977200;28;20463;-70
2021/11/17 07:45:45;;;;;;;14.80;6.13;;;;;;;5.59;94.19;101113.47;20944303;28;20557;-71
2021/11/17 07:55:50;;;;;;;10.85;5.35;;;;;;;5.69;93.60;101127.50;20934871;28;20037;-72
2021/11/17 08:05:53;;;;;;;12.00;5.15;;;;;;;5.73;93.40;101135.38;20975318;28;20045;-70
2021/11/17 08:15:57;;;;;;;10.38;4.80;;;;;;;5.93;92.05;101125.31;20936571;28;20449;-70
2021/11/17 08:25:59;;;;;;;8.55;3.58;;;;;;;5.78;89.36;101128.50;20934345;28;20097;-70
2021/11/17 08:36:02;;;;;;;6.57;2.88;;;;;;;5.84;88.43;101133.78;20972796;28;20045;-70
2021/11/17 08:46:04;;;;;;;8.82;3.70;;;;;;;5.90;89.58;101133.91;20900217;28;20079;-72
2021/11/17 08:56:07;;;;;;;7.18;3.45;;;;;;;5.94;90.04;101147.88;20901904;28;20049;-70
2021/11/17 09:06:11;;;;;;;6.80;3.03;;;;;;;5.91;89.76;101164.28;20899009;28;20479;-70
2021/11/17 09:16:13;;;;;;;8.10;3.17;;;;;;;6.02;89.15;101173.97;20952420;28;20052;-70
2021/11/17 09:26:17;;;;;;;6.97;2.88;;;;;;;6.08;88.78;101174.03;20980952;28;20208;-70
2021/11/17 09:36:22;;;;;;;7.45;3.03;;;;;;;6.16;88.41;101182.84;20951177;28;20102;-70
2021/11/17 09:46:26;;;;;;;6.95;3.45;;;;;;;6.31;89.18;101179.59;20934956;28;20048;-71
2021/11/17 09:56:36;;;;;;;7.63;3.30;;;;;;;6.41;89.76;101179.72;20918380;28;20094;-70
2021/11/17 10:17:42;;;;;;;5.57;2.20;;;;;;;6.31;88.20;101190.84;20946644;28;20047;-70
2021/11/17 10:27:51;;;;;;;4.45;2.00;;;;;;;6.49;87.75;101205.00;20975661;28;20048;-71
2021/11/17 10:38:05;;;;;;;7.05;1.85;;;;;;;6.48;87.98;101205.84;20975350;28;20044;-71
2021/11/17 10:48:24;;;;;;;4.75;1.90;;;;;;;6.54;87.22;101209.41;20948779;28;20441;-70
2021/11/17 10:58:32;;;;;;;5.47;2.65;;;;;;;6.50;87.36;101212.81;20932036;28;20049;-70
2021/11/17 11:08:59;;;;;;;5.45;2.80;;;;;;;6.44;87.45;101212.72;20929698;28;20441;-71
2021/11/17 11:19:25;;;;;;;5.97;2.92;;;;;;;6.60;87.32;101219.00;20971441;28;20490;-70
2021/11/17 11:29:29;;;;;;;7.95;3.38;;;;;;;6.48;87.33;101213.66;20974776;28;20565;-70
2021/11/17 11:39:35;;;;;;;6.47;3.10;;;;;;;6.45;86.28;101208.41;20976177;28;20094;-71
2021/11/17 11:49:42;;;;;;;7.40;3.33;;;;;;;6.37;86.27;101227.38;20989570;28;20314;-71
2021/11/17 11:59:44;;;;;;;8.60;3.55;;;;;;;6.73;86.03;101200.09;20985473;28;20098;-71
2021/11/17 12:10:31;;;;;;;16.70;7.80;;;;;;;7.10;84.41;101191.00;20922888;28;20464;-72
2021/11/17 12:20:38;;;;;;;6.20;3.13;;;;;;;7.35;81.73;101178.25;20986289;28;20056;-70
2021/11/17 12:30:44;;;;;;;8.18;3.30;;;;;;;7.37;82.08;101174.78;20987139;28;20041;-71
2021/11/17 12:40:56;;;;;;;7.10;3.92;;;;;;;7.35;81.51;101163.47;20986484;28;20049;-70
2021/11/17 12:51:03;;;;;;;6.38;3.30;;;;;;;7.46;79.38;101180.06;20984364;28;20048;-70
2021/11/17 13:01:10;;;;;;;8.93;3.65;;;;;;;7.45;78.76;101162.72;20976742;28;20056;-70
2021/11/17 13:11:19;;;;;;;5.93;3.20;;;;;;;7.65;78.14;101175.91;20968842;28;20049;-70
2021/11/17 13:21:20;;;;;;;7.22;3.30;;;;;;;7.41;77.92;101166.13;20975593;28;20064;-70
2021/11/17 13:31:28;;;;;;;7.25;3.08;;;;;;;7.64;77.11;101179.38;20982349;28;20064;-70
2021/11/17 13:41:33;;;;;;;7.10;3.97;;;;;;;7.55;77.00;101187.13;20980606;28;20452;-70
2021/11/17 13:51:34;;;;;;;8.30;3.92;;;;;;;7.44;77.89;101189.63;20980532;28;20052;-69
2021/11/17 14:01:36;;;;;;;8.52;4.35;;;;;;;7.55;77.48;101201.88;20977680;28;20493;-69
2021/11/17 14:11:38;;;;;;;7.13;3.72;;;;;;;7.45;77.90;101196.56;20963200;28;20131;-69
2021/11/17 14:21:42;;;;;;;6.63;3.90;;;;;;;7.39;77.11;101193.06;20961849;28;20049;-70
2021/11/17 14:31:48;;;;;;;8.30;4.00;;;;;;;7.49;77.49;101207.03;20977088;28;20053;-70
2021/11/17 14:41:50;;;;;;;5.90;2.90;;;;;;;7.45;79.04;101208.72;20967847;28;20056;-70
2021/11/17 14:51:51;;;;;;;5.95;2.97;;;;;;;7.48;79.45;101213.13;20976549;28;20055;-70
2021/11/17 15:01:53;;;;;;;7.25;3.42;;;;;;;7.43;79.31;101220.88;20974000;28;20619;-71
2021/11/17 15:12:00;;;;;;;7.50;3.90;;;;;;;7.36;80.36;101240.78;20973881;28;20521;-70
2021/11/17 15:22:03;;;;;;;7.22;3.85;;;;;;;7.27;80.07;101240.66;20989981;28;20044;-70
2021/11/17 15:32:05;;;;;;;10.60;4.10;;;;;;;7.19;80.66;101247.53;20989175;28;20094;-70
2021/11/17 15:42:07;;;;;;;8.55;4.53;;;;;;;7.14;81.85;101252.69;20976380;28;20056;-69
2021/11/17 15:52:10;;;;;;;6.45;4.00;;;;;;;7.08;82.57;101268.22;20981355;28;20056;-69
2021/11/17 16:02:12;;;;;;;7.85;3.90;;;;;;;7.07;81.68;101273.41;20979227;28;20505;-70
2021/11/17 16:12:14;;;;;;;7.45;3.83;;;;;;;6.93;82.54;101289.72;20979460;28;20051;-70
2021/11/17 16:22:31;;;;;;;8.18;4.60;;;;;;;7.03;83.05;101276.84;20978762;28;20052;-70
2021/11/17 16:32:33;;;;;;;10.43;5.00;;;;;;;7.01;82.91;101288.97;20974371;28;20138;-70
2021/11/17 16:42:36;;;;;;;9.48;5.20;;;;;;;6.95;83.21;101294.97;20979372;28;20040;-70
2021/11/17 16:52:41;;;;;;;9.93;4.32;;;;;;;6.92;83.10;101302.75;20977908;28;20041;-71
2021/11/17 17:02:44;;;;;;;9.98;4.88;;;;;;;6.92;84.31;101313.16;20974450;28;20098;-72
2021/11/17 17:12:46;;;;;;;8.85;5.00;;;;;;;6.93;85.54;101318.38;20973556;28;20049;-72
2021/11/17 17:22:49;;;;;;;9.75;4.50;;;;;;;6.91;84.62;101320.09;20973833;28;20094;-72
2021/11/17 17:32:51;;;;;;;9.02;4.63;;;;;;;6.93;84.20;101328.78;20973107;28;20049;-72
2021/11/17 17:42:52;;;;;;;10.23;4.70;;;;;;;6.97;83.34;101365.28;20972133;28;20051;-72
2021/11/17 17:52:54;;;;;;;11.18;5.28;;;;;;;6.98;83.96;101359.22;20971234;28;20044;-72
2021/11/17 18:02:56;;;;;;;11.80;4.85;;;;;;;7.00;82.88;101375.75;20969904;28;20478;-72
2021/11/17 18:12:59;;;;;;;9.40;5.05;;;;;;;7.03;82.40;101375.78;20970810;28;20075;-71
2021/11/17 18:23:00;;;;;;;11.80;5.35;;;;;;;6.96;82.72;101400.00;20968625;28;20078;-72
2021/11/17 18:33:03;;;;;;;10.63;5.80;;;;;;;6.96;83.33;101410.41;20956492;28;20067;-72
2021/11/17 18:43:06;;;;;;;14.65;7.03;;;;;;;6.87;84.05;101435.44;20970457;28;20121;-71
2021/11/17 18:53:08;;;;;;;13.75;6.53;;;;;;;6.91;83.92;101450.25;20965316;28;20048;-72
2021/11/17 19:03:10;;;;;;;12.88;6.43;;;;;;;6.91;83.91;101455.47;20964797;28;20056;-72
2021/11/17 19:13:11;;;;;;;12.30;6.35;;;;;;;6.93;83.92;101471.09;20964855;28;20049;-71
2021/11/17 19:23:13;;;;;;;9.25;5.60;;;;;;;6.89;84.19;101492.72;20963104;28;20052;-71
2021/11/17 19:33:15;;;;;;;11.68;5.85;;;;;;;6.86;84.62;101503.97;20962199;28;20467;-71
2021/11/17 19:43:16;;;;;;;10.95;5.82;;;;;;;6.80;84.63;101503.84;20966340;28;20720;-71
2021/11/17 19:53:19;;;;;;;9.80;5.45;;;;;;;6.82;83.78;101517.78;21023817;28;20405;-72
2021/11/17 20:03:21;;;;;;;13.10;5.88;;;;;;;6.83;83.97;101529.94;21049880;28;20072;-72
2021/11/17 20:13:22;;;;;;;13.05;4.97;;;;;;;6.85;84.07;101542.97;20987538;28;20060;-72
2021/11/17 20:23:24;;;;;;;9.88;4.88;;;;;;;7.03;82.25;101543.31;21020909;28;20052;-72
2021/11/17 20:33:26;;;;;;;8.25;4.10;;;;;;;6.86;83.19;101561.25;21009384;28;20398;-71
2021/11/17 20:43:28;;;;;;;7.57;4.07;;;;;;;6.84;83.33;101565.53;21011672;28;20048;-71
2021/11/17 20:53:32;;;;;;;12.27;6.53;;;;;;;6.86;84.08;101579.47;20998792;28;20047;-72
2021/11/17 21:03:33;;;;;;;7.93;4.25;;;;;;;6.85;85.15;101587.22;20984350;28;20230;-72
2021/11/17 21:13:36;;;;;;;8.45;4.88;;;;;;;6.86;83.65;101586.41;20977759;28;20094;-72
2021/11/17 21:23:38;;;;;;;8.35;4.63;;;;;;;6.86;84.09;101586.41;20980794;28;20475;-70
2021/11/17 21:33:41;;;;;;;9.18;5.20;;;;;;;6.85;83.86;101597.66;20979352;28;20098;-70
2021/11/17 21:43:43;;;;;;;11.80;5.13;;;;;;;6.87;84.07;101591.63;20979301;28;20098;-71
2021/11/17 21:53:45;;;;;;;10.38;5.18;;;;;;;6.89;84.86;101591.66;20978475;28;20052;-70
2021/11/17 22:03:49;;;;;;;8.90;4.93;;;;;;;6.87;84.89;101599.44;20976223;28;20143;-71
2021/11/17 22:13:52;;;;;;;8.63;4.72;;;;;;;6.78;85.25;101607.09;20977131;28;20052;-71
2021/11/17 22:23:54;;;;;;;10.50;5.13;;;;;;;6.79;84.91;101607.97;20973680;28;20171;-70
2021/11/17 22:33:56;;;;;;;9.85;5.68;;;;;;;6.83;85.42;101595.03;20975117;28;20560;-71
2021/11/17 22:43:58;;;;;;;10.90;6.15;;;;;;;6.88;85.04;101618.53;20975728;28;20055;-71
2021/11/17 22:54:00;;;;;;;12.27;6.00;;;;;;;6.92;85.09;101628.19;20975182;28;20540;-71
2021/11/17 23:04:03;;;;;;;11.43;5.88;;;;;;;6.86;85.30;101631.53;20975575;28;20485;-71
2021/11/17 23:14:08;;;;;;;9.18;5.28;;;;;;;6.86;85.52;101633.28;20981731;28;20048;-71
2021/11/17 23:24:19;;;;;;;10.55;5.70;;;;;;;6.86;85.38;101644.56;20980711;28;20475;-71
2021/11/17 23:34:24;;;;;;;10.23;5.20;;;;;;;6.90;85.18;101630.75;20981100;28;20048;-70
2021/11/17 23:44:26;;;;;;;10.02;4.93;;;;;;;6.85;85.29;101631.50;20996133;28;20464;-70
2021/11/17 23:54:30;;;;;;;11.45;5.60;;;;;;;6.89;84.97;101639.38;20995262;28;20082;-70
